Time;durP1;ratioP1;P1;durP2;ratioP2;P2;SDS_P1;SDS_P2;PMS_P1;PMS_P2;Temp;Humidity;BMP_temperature;BMP_pressure;BME280_temperature;BME280_humidity;BME280_pressure;Samples;Min_cycle;Max_cycle;Signal;HPM_P1;HPM_P2
2023/11/12 00:01:52;;;;;;;26.40;19.60;;;5.80;1.00;;;;;;4928639;29;21052;-87
2023/11/12 00:04:19;;;;;;;30.07;17.30;;;5.80;1.00;;;;;;4944103;29;20242;-84
2023/11/12 00:06:45;;;;;;;23.55;19.00;;;5.80;1.00;;;;;;4944416;29;20198;-84
2023/11/12 00:09:10;;;;;;;24.00;18.37;;;5.70;1.00;;;;;;4921809;29;20668;-86
2023/11/12 00:11:38;;;;;;;24.43;17.50;;;5.70;1.00;;;;;;4923312;29;20297;-85
2023/11/12 00:14:04;;;;;;;21.92;17.70;;;5.70;1.00;;;;;;4923989;29;20439;-85
2023/11/12 00:16:29;;;;;;;24.63;17.27;;;5.70;1.00;;;;;;4925008;29;20179;-85
2023/11/12 00:18:55;;;;;;;16.30;13.83;;;5.70;1.00;;;;;;4926567;29;20619;-85
2023/11/12 00:21:23;;;;;;;22.10;14.90;;;5.60;1.00;;;;;;4927905;29;20262;-84
2023/11/12 00:23:48;;;;;;;19.50;13.98;;;5.60;1.00;;;;;;4926575;29;20234;-87
2023/11/12 00:26:14;;;;;;;21.73;14.53;;;5.60;1.00;;;;;;4923045;29;20195;-86
2023/11/12 00:28:43;;;;;;;21.60;13.50;;;5.60;1.00;;;;;;4927553;29;20194;-85
2023/11/12 00:31:08;;;;;;;19.52;13.50;;;5.60;1.00;;;;;;4926135;29;20218;-85
2023/11/12 00:33:34;;;;;;;19.63;12.90;;;5.50;1.00;;;;;;4920790;29;20205;-86
2023/11/12 00:35:59;;;;;;;18.13;12.70;;;5.50;1.00;;;;;;4928192;29;20258;-85
2023/11/12 00:38:25;;;;;;;15.60;12.67;;;5.50;1.00;;;;;;4927568;29;20281;-86
2023/11/12 00:40:51;;;;;;;17.40;13.03;;;5.40;1.00;;;;;;4923481;29;20279;-87
2023/11/12 00:43:17;;;;;;;17.10;12.33;;;5.40;1.00;;;;;;4940650;29;20803;-84
2023/11/12 00:45:43;;;;;;;14.70;11.90;;;5.40;1.00;;;;;;4924611;29;20214;-85
2023/11/12 00:48:09;;;;;;;17.08;12.40;;;5.40;1.00;;;;;;4926156;29;20254;-85
2023/11/12 00:50:34;;;;;;;14.30;11.47;;;5.30;1.00;;;;;;4927782;29;20293;-86
2023/11/12 00:53:00;;;;;;;19.83;11.90;;;5.30;1.00;;;;;;4927962;29;20191;-86
2023/11/12 00:55:26;;;;;;;17.50;13.03;;;5.30;1.00;;;;;;4928306;29;20434;-85
2023/11/12 00:57:51;;;;;;;16.07;11.77;;;5.30;1.00;;;;;;4924601;29;20205;-84
2023/11/12 01:00:17;;;;;;;18.13;12.30;;;5.20;1.00;;;;;;4936731;29;20206;-84
2023/11/12 01:02:43;;;;;;;17.70;12.00;;;5.20;1.00;;;;;;4924978;29;20442;-86
2023/11/12 01:05:08;;;;;;;15.63;11.40;;;5.20;1.00;;;;;;4940238;29;20250;-87
2023/11/12 01:07:36;;;;;;;15.20;11.83;;;5.20;1.00;;;;;;4924330;29;20183;-87
2023/11/12 01:10:02;;;;;;;20.95;11.88;;;5.20;1.00;;;;;;4920755;29;20223;-87
2023/11/12 01:12:28;;;;;;;16.65;11.43;;;5.10;1.00;;;;;;4928681;29;20186;-86
2023/11/12 01:14:53;;;;;;;17.37;12.33;;;5.10;1.00;;;;;;4924802;29;20191;-84
2023/11/12 01:17:19;;;;;;;14.80;12.23;;;5.10;1.00;;;;;;4928378;29;20197;-87
2023/11/12 01:19:45;;;;;;;15.70;11.60;;;5.10;1.00;;;;;;4927671;29;20183;-85
2023/11/12 01:22:11;;;;;;;15.47;10.73;;;5.10;1.00;;;;;;4927513;29;20218;-86
2023/11/12 01:24:37;;;;;;;21.70;11.87;;;5.10;1.00;;;;;;4927935;29;20213;-85
2023/11/12 01:27:04;;;;;;;15.43;11.32;;;5.10;1.00;;;;;;4927199;29;20206;-85
2023/11/12 01:29:29;;;;;;;15.35;11.02;;;5.00;1.00;;;;;;4941540;29;20194;-86
2023/11/12 01:31:55;;;;;;;14.90;11.30;;;5.00;1.00;;;;;;4925342;29;20259;-84
2023/11/12 01:34:21;;;;;;;15.97;12.07;;;5.00;1.00;;;;;;4923142;29;20234;-85
2023/11/12 01:36:47;;;;;;;18.35;13.13;;;5.00;1.00;;;;;;4926073;29;20258;-84
2023/11/12 01:39:13;;;;;;;17.87;11.23;;;5.00;1.00;;;;;;4941571;29;20218;-85
2023/11/12 01:41:39;;;;;;;14.43;9.93;;;5.00;1.00;;;;;;4926858;29;20772;-85
2023/11/12 01:44:04;;;;;;;16.17;11.47;;;5.00;1.00;;;;;;4936855;29;20187;-87
2023/11/12 01:46:30;;;;;;;16.93;11.50;;;4.90;1.00;;;;;;4922728;29;20217;-85
2023/11/12 01:48:57;;;;;;;16.03;10.60;;;4.90;1.00;;;;;;4925982;29;20189;-85
2023/11/12 01:51:24;;;;;;;20.08;12.30;;;4.90;1.00;;;;;;4926084;29;20495;-88
2023/11/12 01:53:51;;;;;;;18.67;10.98;;;4.90;1.00;;;;;;4927510;29;20171;-83
2023/11/12 01:56:18;;;;;;;18.48;10.70;;;4.90;1.00;;;;;;4936942;29;20186;-85
2023/11/12 01:58:45;;;;;;;14.45;11.00;;;4.90;1.00;;;;;;4922798;29;20665;-86
2023/11/12 02:01:11;;;;;;;17.85;11.68;;;4.90;1.00;;;;;;4926208;29;20230;-85
2023/11/12 02:03:38;;;;;;;18.35;11.63;;;4.90;1.00;;;;;;4940925;29;20195;-83
2023/11/12 02:06:04;;;;;;;21.55;10.85;;;4.80;1.00;;;;;;4925766;29;20238;-87
2023/11/12 02:08:35;;;;;;;16.40;11.93;;;4.80;1.00;;;;;;4937942;29;20195;-85
2023/11/12 02:11:07;;;;;;;17.85;11.48;;;4.80;1.00;;;;;;4926528;29;20485;-89
2023/11/12 02:13:34;;;;;;;17.33;11.57;;;4.80;1.00;;;;;;4927166;29;20190;-84
2023/11/12 02:16:00;;;;;;;18.50;10.70;;;4.80;1.00;;;;;;4941403;29;20178;-86
2023/11/12 02:18:26;;;;;;;18.70;11.70;;;4.80;1.00;;;;;;4926682;29;20206;-87
2023/11/12 02:20:51;;;;;;;18.90;11.33;;;4.90;1.00;;;;;;4926920;29;20649;-84
2023/11/12 02:23:17;;;;;;;14.63;10.10;;;4.90;1.00;;;;;;4924582;29;20199;-86
2023/11/12 02:25:44;;;;;;;13.30;10.77;;;4.90;1.00;;;;;;4934818;29;20186;-86
2023/11/12 02:28:10;;;;;;;15.07;10.90;;;4.90;1.00;;;;;;4940026;29;20206;-85
2023/11/12 02:30:37;;;;;;;17.75;10.60;;;4.90;1.00;;;;;;4926806;29;20202;-86
2023/11/12 02:33:05;;;;;;;16.55;10.23;;;5.00;1.00;;;;;;4925107;29;20202;-86
2023/11/12 02:35:32;;;;;;;17.15;11.77;;;5.00;1.00;;;;;;4941150;29;20577;-86
2023/11/12 02:37:58;;;;;;;17.15;11.73;;;5.00;1.00;;;;;;4922449;29;20246;-85
2023/11/12 02:40:24;;;;;;;18.98;11.23;;;5.10;1.00;;;;;;4936262;29;20589;-85
2023/11/12 02:42:49;;;;;;;13.47;9.57;;;5.20;1.00;;;;;;4923525;29;20202;-85
2023/11/12 02:45:16;;;;;;;15.93;10.30;;;5.20;1.00;;;;;;4926672;29;20182;-85
2023/11/12 02:47:43;;;;;;;12.02;9.73;;;5.20;1.00;;;;;;4927899;29;20179;-84
2023/11/12 02:50:30;;;;;;;16.33;11.30;;;5.20;1.00;;;;;;4929882;29;20203;-86
2023/11/12 02:52:57;;;;;;;13.73;9.05;;;5.20;1.00;;;;;;4925656;29;20185;-88
2023/11/12 02:55:24;;;;;;;14.05;9.93;;;5.20;1.00;;;;;;4928889;29;20187;-86
2023/11/12 02:57:49;;;;;;;12.77;10.52;;;5.20;1.00;;;;;;4941819;29;20209;-85
2023/11/12 03:00:16;;;;;;;14.60;9.77;;;5.20;1.00;;;;;;4925882;29;20203;-85
2023/11/12 03:02:42;;;;;;;12.55;9.23;;;5.20;1.00;;;;;;4925717;29;20187;-86
2023/11/12 03:05:10;;;;;;;13.37;9.40;;;5.10;1.00;;;;;;4938770;29;20660;-85
2023/11/12 03:07:36;;;;;;;17.10;9.35;;;5.10;1.00;;;;;;4918818;29;20464;-85
2023/11/12 03:10:03;;;;;;;14.05;9.90;;;5.10;1.00;;;;;;4943512;29;20242;-85
2023/11/12 03:12:29;;;;;;;14.45;11.25;;;5.10;1.00;;;;;;4928921;29;20202;-87
2023/11/12 03:14:54;;;;;;;12.87;9.20;;;5.10;1.00;;;;;;4921073;29;20186;-85
2023/11/12 03:17:20;;;;;;;17.03;10.53;;;5.10;1.00;;;;;;4922704;29;20186;-86
2023/11/12 03:19:49;;;;;;;13.27;10.20;;;5.10;1.00;;;;;;4929165;29;20195;-86
2023/11/12 03:22:15;;;;;;;14.88;10.23;;;5.10;1.00;;;;;;4943615;29;20286;-84
2023/11/12 03:24:41;;;;;;;17.70;9.82;;;5.00;1.00;;;;;;4929276;29;20214;-85
2023/11/12 03:27:08;;;;;;;14.80;9.87;;;5.00;1.00;;;;;;4922540;29;20203;-86
2023/11/12 03:29:34;;;;;;;20.95;10.35;;;5.10;1.00;;;;;;4942821;29;20218;-87
2023/11/12 03:31:59;;;;;;;17.70;10.33;;;5.00;1.00;;;;;;4929993;29;20222;-84
2023/11/12 03:34:25;;;;;;;11.13;9.60;;;5.00;1.00;;;;;;4929219;29;20190;-84
2023/11/12 03:36:50;;;;;;;14.03;8.70;;;5.00;1.00;;;;;;4924398;29;20225;-85
2023/11/12 03:39:17;;;;;;;13.60;9.23;;;5.00;1.00;;;;;;4928117;29;20182;-85
2023/11/12 03:41:43;;;;;;;15.35;9.43;;;5.00;1.00;;;;;;4928511;29;20211;-86
2023/11/12 03:44:08;;;;;;;13.00;8.80;;;5.00;1.00;;;;;;4927857;29;20246;-86
2023/11/12 03:46:35;;;;;;;13.43;9.90;;;5.00;1.00;;;;;;4921288;29;20825;-85
2023/11/12 03:49:01;;;;;;;13.57;9.18;;;4.90;1.00;;;;;;4926011;29;20189;-86
2023/11/12 03:51:27;;;;;;;13.40;9.70;;;4.90;1.00;;;;;;4928910;29;20305;-84
2023/11/12 03:53:52;;;;;;;10.40;8.40;;;4.90;1.00;;;;;;4929137;29;21007;-85
2023/11/12 03:56:18;;;;;;;19.33;9.53;;;4.90;1.00;;;;;;4936702;29;20191;-84
2023/11/12 03:58:43;;;;;;;13.53;9.70;;;4.90;1.00;;;;;;4941216;29;20210;-86
2023/11/12 04:01:09;;;;;;;16.60;10.13;;;4.90;1.00;;;;;;4929373;29;20241;-84
2023/11/12 04:03:34;;;;;;;15.90;10.37;;;4.90;1.00;;;;;;4924829;29;20210;-84
2023/11/12 04:06:00;;;;;;;18.43;8.43;;;4.80;1.00;;;;;;4925389;29;20249;-87
2023/11/12 04:08:26;;;;;;;17.48;9.40;;;4.80;1.00;;;;;;4923834;29;20198;-86
2023/11/12 04:10:51;;;;;;;17.67;8.07;;;4.80;1.00;;;;;;4926155;29;20210;-85
2023/11/12 04:13:17;;;;;;;10.90;8.80;;;4.80;1.00;;;;;;4922155;29;20198;-85
2023/11/12 04:15:43;;;;;;;13.80;8.90;;;4.70;1.00;;;;;;4921395;29;20197;-87
2023/11/12 04:18:08;;;;;;;10.90;8.60;;;4.70;1.00;;;;;;4940662;29;20179;-86
2023/11/12 04:20:34;;;;;;;11.90;10.07;;;4.70;1.00;;;;;;4918967;29;20210;-84
2023/11/12 04:22:59;;;;;;;9.50;7.50;;;4.70;1.00;;;;;;4926316;29;20182;-86
2023/11/12 04:25:25;;;;;;;12.87;7.87;;;4.70;1.00;;;;;;4928368;29;20194;-86
2023/11/12 04:27:51;;;;;;;14.93;8.87;;;4.60;1.00;;;;;;4944467;29;20187;-84
2023/11/12 04:30:18;;;;;;;13.20;9.17;;;4.60;1.00;;;;;;4943566;29;20210;-85
2023/11/12 04:32:44;;;;;;;12.73;8.35;;;4.60;1.00;;;;;;4934485;29;20190;-87
2023/11/12 04:35:11;;;;;;;12.00;8.30;;;4.60;1.00;;;;;;4928517;29;20175;-86
2023/11/12 04:37:37;;;;;;;11.75;8.57;;;4.50;1.00;;;;;;4924694;29;20234;-84
2023/11/12 04:40:03;;;;;;;13.73;8.30;;;4.50;1.00;;;;;;4928423;29;20185;-84
2023/11/12 04:42:29;;;;;;;11.60;7.70;;;4.50;1.00;;;;;;4942698;29;20215;-85
2023/11/12 04:44:55;;;;;;;10.13;7.27;;;4.40;1.00;;;;;;4921795;29;21616;-85
2023/11/12 04:47:20;;;;;;;8.90;6.90;;;4.40;1.00;;;;;;4942532;29;20183;-83
2023/11/12 04:49:46;;;;;;;11.13;8.60;;;4.30;1.00;;;;;;4928619;29;20187;-85
2023/11/12 04:52:44;;;;;;;10.53;7.77;;;4.30;1.00;;;;;;4955627;23;20236;-88
2023/11/12 04:56:06;;;;;;;10.20;7.75;;;4.30;1.00;;;;;;4948687;28;20453;-88
2023/11/12 04:58:48;;;;;;;11.38;8.13;;;4.20;1.00;;;;;;4936244;28;20300;-88
2023/11/12 05:01:53;;;;;;;10.48;7.65;;;4.20;1.00;;;;;;4954152;28;20636;-88
2023/11/12 05:04:42;;;;;;;9.60;7.15;;;4.10;1.00;;;;;;4964232;28;20177;-87
2023/11/12 05:11:48;;;;;;;;;;;;;;;;;;;;;
2023/11/12 05:14:47;;;;;;;10.70;7.88;;;4.00;1.00;;;;;;4927894;29;20286;-88
2023/11/12 05:17:13;;;;;;;8.13;6.28;;;3.90;1.00;;;;;;4957234;28;20193;-90
2023/11/12 05:23:10;;;;;;;8.80;7.53;;;3.80;1.00;;;;;;4941607;29;20216;-88
2023/11/12 05:31:39;;;;;;;9.25;7.57;;;3.70;1.00;;;;;;4914127;28;20234;-88
2023/11/12 05:34:35;;;;;;;7.93;7.13;;;3.70;1.00;;;;;;4953020;28;20200;-88
2023/11/12 05:37:59;;;;;;;11.35;7.68;;;3.70;1.00;;;;;;4940833;29;20196;-88
2023/11/12 05:41:23;;;;;;;12.68;8.07;;;3.70;1.00;;;;;;4946411;28;20194;-88
2023/11/12 05:44:22;;;;;;;10.75;7.60;;;3.70;1.00;;;;;;4937181;29;20190;-88
2023/11/12 05:47:22;;;;;;;15.20;8.70;;;3.70;1.00;;;;;;4932918;28;20198;-88
2023/11/12 05:53:19;;;;;;;8.73;7.15;;;3.70;1.00;;;;;;5158291;23;20249;-87
2023/11/12 05:56:14;;;;;;;10.07;7.18;;;3.60;1.00;;;;;;4950122;29;20240;-88
2023/11/12 06:15:00;;;;;;;10.43;7.63;;;3.50;1.00;;;;;;4931330;29;20186;-87
2023/11/12 06:17:26;;;;;;;9.60;7.20;;;3.40;1.00;;;;;;4926721;29;20202;-87
2023/11/12 06:20:59;;;;;;;12.40;7.07;;;3.40;1.00;;;;;;4931912;29;20190;-86
2023/11/12 06:30:08;;;;;;;10.02;6.35;;;3.40;1.00;;;;;;4930125;29;20198;-87
2023/11/12 06:33:03;;;;;;;16.15;8.32;;;3.40;1.00;;;;;;4933654;29;20225;-87
2023/11/12 06:35:43;;;;;;;12.68;8.02;;;3.40;1.00;;;;;;4930694;29;20235;-87
2023/11/12 06:38:36;;;;;;;13.10;8.88;;;3.50;1.00;;;;;;4934538;29;20728;-89
2023/11/12 06:41:56;;;;;;;;;;;;;;;;;;;;;
2023/11/12 06:45:09;;;;;;;13.25;9.30;;;3.50;1.00;;;;;;4924484;29;20202;-87
2023/11/12 06:48:18;;;;;;;;;;;;;;;;;;;;;
2023/11/12 06:56:59;;;;;;;;;;;;;;;;;;;;;
2023/11/12 07:00:24;;;;;;;;;;;;;;;;;;;;;
2023/11/12 07:10:03;;;;;;;13.55;10.40;;;4.10;1.00;;;;;;4930183;29;20201;-89
2023/11/12 07:16:04;;;;;;;12.07;8.20;;;4.30;1.00;;;;;;4921752;29;20281;-90
2023/11/12 07:19:33;;;;;;;10.98;7.95;;;4.40;1.00;;;;;;4934982;28;20178;-90
2023/11/12 07:22:35;;;;;;;12.85;8.88;;;4.50;1.00;;;;;;4884295;29;20263;-90
2023/11/12 07:28:41;;;;;;;8.65;7.63;;;4.70;1.00;;;;;;4901367;29;20229;-89
2023/11/12 07:31:20;;;;;;;11.25;7.85;;;5.60;1.00;;;;;;4877942;29;20269;-90
2023/11/12 07:37:20;;;;;;;7.83;6.90;;;7.50;99.90;;;;;;4911149;29;20285;-90
2023/11/12 07:40:25;;;;;;;6.50;5.90;;;10.30;99.90;;;;;;4949154;28;20446;-90
2023/11/12 07:46:52;;;;;;;6.17;5.57;;;14.80;1.00;;;;;;4919705;29;20506;-92
2023/11/12 07:49:20;;;;;;;6.33;5.73;;;16.70;1.00;;;;;;4938075;29;20456;-91
2023/11/12 07:51:48;;;;;;;6.13;5.53;;;17.50;99.90;;;;;;4937607;29;20489;-91
2023/11/12 07:57:04;;;;;;;12.97;11.00;;;17.80;99.90;;;;;;4940247;29;20421;-91
2023/11/12 07:59:43;;;;;;;11.63;8.87;;;17.20;99.90;;;;;;4938446;29;20445;-91
2023/11/12 08:02:36;;;;;;;7.60;6.80;;;16.30;99.90;;;;;;4954999;29;20866;-91
2023/11/12 08:05:20;;;;;;;12.10;7.00;;;15.20;99.90;;;;;;4940349;29;20482;-91
2023/11/12 08:08:07;;;;;;;;;;;;;;;;;;;;;
2023/11/12 08:11:16;;;;;;;7.80;7.10;;;14.20;99.90;;;;;;4948085;29;20485;-91
2023/11/12 08:13:54;;;;;;;7.90;6.00;;;15.00;99.90;;;;;;4961494;29;20446;-91
2023/11/12 08:16:46;;;;;;;7.03;6.33;;;15.90;99.90;;;;;;4962684;29;20498;-91
2023/11/12 08:19:31;;;;;;;11.13;6.00;;;16.50;99.90;;;;;;4955639;29;20529;-91
2023/11/12 08:22:11;;;;;;;7.17;6.47;;;16.90;99.90;;;;;;4956028;28;20903;-92
2023/11/12 08:24:59;;;;;;;9.70;6.37;;;18.30;99.90;;;;;;4954402;29;20517;-90
2023/11/12 08:27:38;;;;;;;5.67;5.17;;;19.70;99.90;;;;;;4949579;29;20442;-91
2023/11/12 08:30:13;;;;;;;8.43;5.60;;;20.20;99.90;;;;;;4939397;29;20456;-90
2023/11/12 08:35:30;;;;;;;8.27;5.87;;;21.00;99.90;;;;;;4922313;29;20541;-90
2023/11/12 08:37:59;;;;;;;8.27;5.83;;;20.50;99.90;;;;;;4933263;29;20442;-90
2023/11/12 08:40:24;;;;;;;9.10;5.23;;;19.60;99.90;;;;;;4934392;29;20960;-90
2023/11/12 08:43:02;;;;;;;6.33;4.73;;;18.70;99.90;;;;;;4928151;29;20493;-92
2023/11/12 08:45:32;;;;;;;7.70;4.33;;;18.20;99.90;;;;;;4933405;28;20341;-90
2023/11/12 08:48:01;;;;;;;6.43;4.33;;;17.20;99.90;;;;;;4931353;29;20453;-90
2023/11/12 08:50:27;;;;;;;10.33;5.67;;;17.00;99.90;;;;;;4944711;28;20531;-89
2023/11/12 08:53:07;;;;;;;6.17;5.10;;;16.70;99.90;;;;;;4935980;29;20437;-90
2023/11/12 08:55:36;;;;;;;6.77;5.50;;;16.70;99.90;;;;;;4952157;28;20197;-89
2023/11/12 08:58:02;;;;;;;10.63;5.57;;;17.40;99.90;;;;;;4934289;29;20442;-88
2023/11/12 09:00:36;;;;;;;6.30;4.93;;;17.80;99.90;;;;;;4938993;29;20450;-89
2023/11/12 09:03:01;;;;;;;7.03;6.07;;;18.60;99.90;;;;;;4934697;29;20261;-89
2023/11/12 09:05:30;;;;;;;10.20;6.47;;;18.80;99.90;;;;;;4926840;29;20457;-88
2023/11/12 09:08:04;;;;;;;8.00;7.10;;;18.10;99.90;;;;;;4929587;29;20182;-89
2023/11/12 09:10:33;;;;;;;7.23;5.60;;;17.50;99.90;;;;;;4936085;29;20441;-88
2023/11/12 09:12:59;;;;;;;9.57;6.50;;;17.70;99.90;;;;;;4932410;29;20437;-87
2023/11/12 09:15:27;;;;;;;7.97;7.00;;;17.30;99.90;;;;;;4928616;28;20548;-88
2023/11/12 09:17:54;;;;;;;11.13;7.00;;;16.70;99.90;;;;;;4934144;29;20959;-87
2023/11/12 09:20:19;;;;;;;6.93;5.70;;;16.00;99.90;;;;;;4933168;29;20453;-87
2023/11/12 09:22:48;;;;;;;7.43;6.50;;;15.60;99.90;;;;;;4931844;29;20991;-88
2023/11/12 09:25:14;;;;;;;6.27;5.23;;;15.30;99.90;;;;;;4950322;28;20639;-89
2023/11/12 09:27:39;;;;;;;8.67;5.87;;;14.50;99.90;;;;;;4932598;29;20457;-87
2023/11/12 09:30:08;;;;;;;12.00;5.47;;;13.90;99.90;;;;;;4935409;29;20229;-88
2023/11/12 09:32:35;;;;;;;8.77;6.37;;;13.60;99.90;;;;;;4930334;29;20206;-88
2023/11/12 09:35:01;;;;;;;9.93;6.77;;;13.30;99.90;;;;;;4931459;29;20477;-88
2023/11/12 09:37:27;;;;;;;15.70;6.93;;;12.90;99.90;;;;;;4934037;29;20438;-87
2023/11/12 09:39:54;;;;;;;20.17;6.23;;;12.70;99.90;;;;;;4930235;28;20812;-88
2023/11/12 09:42:22;;;;;;;10.07;6.20;;;12.40;99.90;;;;;;4934519;29;20194;-87
2023/11/12 09:44:48;;;;;;;11.47;7.10;;;12.20;99.90;;;;;;4932474;29;20648;-87
2023/11/12 09:47:22;;;;;;;9.23;6.70;;;12.20;99.90;;;;;;4929814;29;21030;-87
2023/11/12 09:49:50;;;;;;;17.87;6.03;;;12.20;99.90;;;;;;4933262;29;20194;-89
2023/11/12 09:52:16;;;;;;;16.17;7.50;;;12.40;99.90;;;;;;4931596;29;20457;-87
2023/11/12 09:54:43;;;;;;;16.73;5.93;;;12.40;99.90;;;;;;4945701;28;20975;-87
2023/11/12 09:57:08;;;;;;;12.30;5.13;;;12.50;99.90;;;;;;4934499;29;20213;-88
2023/11/12 09:59:34;;;;;;;15.00;6.50;;;12.80;99.90;;;;;;4924677;29;20445;-87
2023/11/12 10:02:07;;;;;;;14.23;6.10;;;12.90;99.90;;;;;;4930793;29;20221;-88
2023/11/12 10:04:32;;;;;;;19.30;6.30;;;13.00;99.90;;;;;;4930483;29;20557;-87
2023/11/12 10:06:58;;;;;;;10.20;5.90;;;13.40;99.90;;;;;;4932407;29;20537;-87
2023/11/12 10:09:31;;;;;;;9.83;6.77;;;13.20;99.90;;;;;;4933141;29;20240;-87
2023/11/12 10:12:03;;;;;;;13.40;5.23;;;13.10;99.90;;;;;;4949116;28;20525;-87
2023/11/12 10:14:29;;;;;;;10.93;5.90;;;13.30;99.90;;;;;;4931809;29;20964;-87
2023/11/12 10:17:10;;;;;;;10.23;6.60;;;13.10;99.90;;;;;;4931195;29;20449;-87
2023/11/12 10:19:37;;;;;;;9.17;5.80;;;13.00;99.90;;;;;;4934043;29;20265;-87
2023/11/12 10:22:07;;;;;;;9.23;6.03;;;12.90;99.90;;;;;;4928322;29;20479;-87
2023/11/12 10:24:43;;;;;;;7.77;5.97;;;12.80;99.90;;;;;;4944001;29;20429;-87
2023/11/12 10:27:14;;;;;;;7.33;5.40;;;12.60;1.00;;;;;;4928076;29;21123;-87
2023/11/12 10:29:41;;;;;;;10.13;6.10;;;12.50;1.00;;;;;;4937955;29;20426;-87
2023/11/12 10:32:07;;;;;;;7.33;5.97;;;12.40;1.00;;;;;;4925888;29;20522;-87
2023/11/12 10:35:05;;;;;;;6.50;5.40;;;12.60;1.00;;;;;;4933485;29;20440;-88
2023/11/12 10:37:53;;;;;;;7.60;5.80;;;12.60;1.00;;;;;;4933640;29;20468;-88
2023/11/12 10:40:24;;;;;;;11.13;5.53;;;12.60;1.00;;;;;;4926777;29;20455;-88
2023/11/12 10:43:09;;;;;;;9.33;5.40;;;12.70;1.00;;;;;;4936658;28;20451;-88
2023/11/12 10:45:42;;;;;;;7.00;5.60;;;12.70;1.00;;;;;;4931640;29;20437;-88
2023/11/12 10:48:10;;;;;;;7.80;5.47;;;12.70;1.00;;;;;;4944981;28;20978;-88
2023/11/12 10:50:40;;;;;;;7.33;5.50;;;12.80;1.00;;;;;;4938293;29;20434;-89
2023/11/12 10:53:06;;;;;;;10.67;5.30;;;13.70;1.00;;;;;;4956898;23;20991;-86
2023/11/12 10:55:35;;;;;;;7.10;4.83;;;15.40;99.90;;;;;;4948422;28;20437;-85
2023/11/12 10:58:08;;;;;;;8.80;4.70;;;17.20;99.90;;;;;;4949304;28;20446;-86
2023/11/12 11:00:35;;;;;;;8.17;4.90;;;18.80;99.90;;;;;;4955909;28;21015;-85
2023/11/12 11:03:08;;;;;;;6.40;4.50;;;20.10;99.90;;;;;;4940360;28;20499;-86
2023/11/12 11:05:35;;;;;;;7.40;5.20;;;20.80;99.90;;;;;;4945524;28;20967;-85
2023/11/12 11:08:04;;;;;;;11.10;4.40;;;20.10;99.90;;;;;;4933231;28;20964;-84
2023/11/12 11:10:42;;;;;;;;;;;;;;;;;;;;;
2023/11/12 11:13:09;;;;;;;8.87;5.63;;;18.70;99.90;;;;;;5022931;23;20493;-85
2023/11/12 11:15:52;;;;;;;7.20;5.20;;;18.10;99.90;;;;;;4937181;29;20444;-86
2023/11/12 11:18:36;;;;;;;5.53;4.70;;;17.70;99.90;;;;;;4963884;28;20528;-85
2023/11/12 11:21:05;;;;;;;5.67;4.77;;;17.40;99.90;;;;;;4945611;28;20476;-85
2023/11/12 11:23:57;;;;;;;7.43;4.93;;;17.10;99.90;;;;;;4936286;29;20466;-85
2023/11/12 11:26:39;;;;;;;6.70;5.10;;;16.70;99.90;;;;;;4920735;29;20506;-85
2023/11/12 11:29:05;;;;;;;6.17;5.27;;;16.20;99.90;;;;;;4939488;29;20442;-85
2023/11/12 11:31:31;;;;;;;7.50;5.00;;;16.40;99.90;;;;;;4924063;29;20549;-86
2023/11/12 11:33:58;;;;;;;6.00;4.60;;;17.00;99.90;;;;;;4942426;29;20221;-85
2023/11/12 11:36:25;;;;;;;7.83;5.30;;;16.50;99.90;;;;;;4944225;29;20441;-85
2023/11/12 11:39:15;;;;;;;6.53;4.50;;;16.70;99.90;;;;;;4936311;29;20438;-85
2023/11/12 11:41:56;;;;;;;8.50;5.20;;;16.40;99.90;;;;;;4929182;29;20568;-85
2023/11/12 11:44:46;;;;;;;11.60;5.27;;;16.00;99.90;;;;;;4933361;29;20447;-86
2023/11/12 11:47:22;;;;;;;6.70;4.53;;;16.00;99.90;;;;;;4931200;29;20441;-85
2023/11/12 11:50:04;;;;;;;8.60;5.80;;;15.20;99.90;;;;;;4937385;29;20460;-85
2023/11/12 11:52:30;;;;;;;9.87;5.93;;;15.00;99.90;;;;;;4928072;29;21227;-85
2023/11/12 11:55:02;;;;;;;10.10;5.53;;;14.70;99.90;;;;;;4933810;29;20434;-84
2023/11/12 11:57:29;;;;;;;9.73;6.00;;;14.30;99.90;;;;;;4940564;29;20201;-85
2023/11/12 11:59:58;;;;;;;7.50;5.37;;;14.10;99.90;;;;;;4924060;29;21161;-84
2023/11/12 12:02:26;;;;;;;8.20;5.10;;;14.20;99.90;;;;;;4931116;29;20470;-85
2023/11/12 12:04:57;;;;;;;10.13;5.30;;;14.40;99.90;;;;;;4934082;29;20445;-83
2023/11/12 12:07:32;;;;;;;8.00;5.23;;;14.40;99.90;;;;;;4923442;29;20447;-83
2023/11/12 12:09:59;;;;;;;6.53;4.93;;;14.10;99.90;;;;;;4920649;29;20422;-83
2023/11/12 12:12:24;;;;;;;6.83;5.13;;;14.10;99.90;;;;;;4936593;29;20477;-84
2023/11/12 12:14:51;;;;;;;12.40;6.43;;;13.90;99.90;;;;;;4938813;29;20449;-84
2023/11/12 12:17:17;;;;;;;9.80;5.90;;;13.80;99.90;;;;;;4940939;29;20715;-83
2023/11/12 12:19:43;;;;;;;10.47;6.50;;;13.80;99.90;;;;;;4919468;29;20449;-84
2023/11/12 12:22:09;;;;;;;10.80;7.37;;;14.00;99.90;;;;;;4933505;29;20861;-84
2023/11/12 12:24:35;;;;;;;8.97;5.40;;;14.00;99.90;;;;;;4923871;29;20568;-84
2023/11/12 12:27:12;;;;;;;12.77;6.13;;;14.20;99.90;;;;;;4922237;29;20537;-84
2023/11/12 12:29:39;;;;;;;6.70;5.30;;;14.40;99.90;;;;;;4933908;29;20943;-84
2023/11/12 12:32:19;;;;;;;8.13;5.67;;;14.40;99.90;;;;;;4922798;29;20480;-84
2023/11/12 12:34:56;;;;;;;9.03;5.30;;;14.30;99.90;;;;;;4924066;29;20511;-84
2023/11/12 12:37:24;;;;;;;14.10;12.70;;;14.20;99.90;;;;;;4918868;29;20433;-84
2023/11/12 12:39:52;;;;;;;9.83;6.70;;;14.50;99.90;;;;;;4925649;29;20450;-84
2023/11/12 12:42:24;;;;;;;9.20;6.40;;;14.50;99.90;;;;;;4924975;29;20477;-84
2023/11/12 12:44:51;;;;;;;9.13;5.73;;;15.00;99.90;;;;;;4940899;29;20438;-84
2023/11/12 12:47:33;;;;;;;7.83;5.50;;;15.40;99.90;;;;;;4917329;29;20442;-84
2023/11/12 12:50:22;;;;;;;6.30;5.10;;;15.80;99.90;;;;;;4924535;29;20809;-84
2023/11/12 12:52:51;;;;;;;6.60;4.90;;;16.30;99.90;;;;;;4937194;29;20810;-84
2023/11/12 12:55:17;;;;;;;6.60;4.73;;;16.00;99.90;;;;;;4927342;29;20822;-84
2023/11/12 12:57:43;;;;;;;6.53;5.73;;;16.00;99.90;;;;;;4935082;29;20446;-84
2023/11/12 13:00:11;;;;;;;7.50;4.73;;;15.90;99.90;;;;;;4926986;29;20951;-83
2023/11/12 13:02:41;;;;;;;10.90;6.10;;;15.80;99.90;;;;;;4917915;29;21003;-84
2023/11/12 13:05:18;;;;;;;20.80;7.23;;;15.50;99.90;;;;;;4933306;29;20437;-84
2023/11/12 13:07:50;;;;;;;10.10;5.00;;;15.20;99.90;;;;;;4924913;29;20445;-84
2023/11/12 13:10:20;;;;;;;11.30;5.30;;;15.00;99.90;;;;;;4924159;29;20994;-84
2023/11/12 13:12:47;;;;;;;8.43;5.17;;;14.90;99.90;;;;;;4936582;29;20529;-84
2023/11/12 13:15:15;;;;;;;10.07;5.90;;;14.50;99.90;;;;;;4923106;29;20442;-84
2023/11/12 13:17:41;;;;;;;12.70;5.63;;;14.00;99.90;;;;;;4922361;29;20890;-84
2023/11/12 13:20:09;;;;;;;10.63;5.87;;;14.00;99.90;;;;;;4920480;29;20450;-84
2023/11/12 13:22:35;;;;;;;7.20;5.07;;;13.90;99.90;;;;;;4919348;29;20474;-83
2023/11/12 13:25:02;;;;;;;11.00;5.13;;;13.80;1.00;;;;;;4924053;29;20431;-84
2023/11/12 13:27:30;;;;;;;11.87;5.23;;;13.70;1.00;;;;;;4925628;29;20441;-84
2023/11/12 13:29:56;;;;;;;10.50;4.97;;;13.70;1.00;;;;;;4927669;29;20430;-84
2023/11/12 13:32:25;;;;;;;10.03;5.13;;;13.60;1.00;;;;;;4921594;29;20466;-84
2023/11/12 13:34:52;;;;;;;13.37;5.60;;;13.40;1.00;;;;;;4918727;29;21797;-84
2023/11/12 13:37:17;;;;;;;8.70;5.20;;;13.20;1.00;;;;;;4942521;29;20821;-83
2023/11/12 13:39:43;;;;;;;11.47;5.30;;;13.10;1.00;;;;;;4919612;29;20442;-84
2023/11/12 13:42:09;;;;;;;8.60;4.27;;;13.00;1.00;;;;;;4917873;29;20214;-84
2023/11/12 13:44:36;;;;;;;15.70;5.57;;;12.90;1.00;;;;;;4924706;29;20186;-84
2023/11/12 13:47:03;;;;;;;13.57;5.27;;;12.70;1.00;;;;;;4932402;29;20757;-84
2023/11/12 13:49:28;;;;;;;6.87;4.70;;;12.60;1.00;;;;;;4917774;29;20455;-84
2023/11/12 13:51:55;;;;;;;10.33;5.53;;;12.50;1.00;;;;;;4922297;29;20517;-84
2023/11/12 13:54:23;;;;;;;16.17;6.70;;;12.40;1.00;;;;;;4931195;29;20297;-83
2023/11/12 13:56:50;;;;;;;10.63;5.93;;;12.50;1.00;;;;;;4921103;29;20457;-84
2023/11/12 13:59:20;;;;;;;12.80;5.37;;;12.40;1.00;;;;;;4931582;29;20497;-84
2023/11/12 14:01:46;;;;;;;14.40;6.20;;;12.40;1.00;;;;;;4920878;29;20557;-84
2023/11/12 14:04:13;;;;;;;19.50;4.87;;;12.30;12.30;;;;;;4931218;29;20465;-84
2023/11/12 14:06:40;;;;;;;9.13;5.90;;;12.30;94.00;;;;;;4927790;29;20449;-83
2023/11/12 14:09:08;;;;;;;15.77;5.30;;;12.30;99.90;;;;;;4942726;29;21008;-84
2023/11/12 14:11:36;;;;;;;12.43;5.73;;;12.20;99.90;;;;;;4947437;29;21192;-84
2023/11/12 14:14:02;;;;;;;17.63;5.63;;;12.20;99.90;;;;;;4920522;29;20426;-84
2023/11/12 14:16:28;;;;;;;8.90;6.10;;;12.30;99.90;;;;;;4934891;29;20545;-84
2023/11/12 14:18:54;;;;;;;15.47;6.57;;;12.20;99.90;;;;;;4927082;29;20529;-85
2023/11/12 14:21:21;;;;;;;11.63;5.93;;;12.10;99.90;;;;;;4921169;29;20474;-85
2023/11/12 14:23:49;;;;;;;15.40;5.40;;;12.10;99.90;;;;;;4932688;29;20182;-85
2023/11/12 14:26:15;;;;;;;12.43;5.13;;;12.10;99.90;;;;;;4940447;29;20434;-85
2023/11/12 14:28:41;;;;;;;13.43;5.33;;;12.10;99.90;;;;;;4926669;29;20517;-85
2023/11/12 14:31:10;;;;;;;14.70;5.70;;;12.10;99.90;;;;;;4918458;29;20458;-84
2023/11/12 14:33:38;;;;;;;16.23;7.03;;;12.00;1.00;;;;;;4934206;29;20657;-85